Time;durP1;ratioP1;P1;durP2;ratioP2;P2;SDS_P1;SDS_P2;PMS_P1;PMS_P2;Temp;Humidity;BMP_temperature;BMP_pressure;BME280_temperature;BME280_humidity;BME280_pressure;Samples;Min_cycle;Max_cycle;Signal;HPM_P1;HPM_P2
2023/10/15 00:00:00;;;;;;;;;11.67;9.33;;;;;17.78;71.77;100763.28;146628;602;46010;-66
2023/10/15 00:03:18;;;;;;;;;10.67;10.00;;;;;17.81;71.27;100763.34;146626;579;46014;-68
2023/10/15 00:06:32;;;;;;;;;10.33;9.33;;;;;17.80;70.41;100756.34;146620;584;46020;-67
2023/10/15 00:09:42;;;;;;;;;13.00;9.33;;;;;17.78;71.18;100755.41;146624;692;47033;-67
2023/10/15 00:12:37;;;;;;;;;12.00;9.67;;;;;17.73;71.08;100754.41;146618;573;47020;-67
2023/10/15 00:15:43;;;;;;;;;12.33;7.67;;;;;17.73;70.47;100751.78;146621;656;46013;-68
2023/10/15 00:18:40;;;;;;;;;9.67;9.00;;;;;17.75;70.70;100750.94;146632;586;47010;-67
2023/10/15 00:21:51;;;;;;;;;8.00;8.00;;;;;17.78;70.80;100743.19;146627;569;46012;-69
2023/10/15 00:24:49;;;;;;;;;11.67;8.00;;;;;17.85;71.05;100741.59;146625;656;46021;-68
2023/10/15 00:27:56;;;;;;;;;10.67;8.67;;;;;17.88;70.77;100736.44;146626;639;46012;-68
2023/10/15 00:31:01;;;;;;;;;10.33;9.33;;;;;17.88;70.00;100736.44;146624;569;46011;-67
2023/10/15 00:33:59;;;;;;;;;12.00;10.00;;;;;17.87;70.70;100737.25;146618;572;46016;-68
2023/10/15 00:36:55;;;;;;;;;10.00;9.00;;;;;17.87;70.01;100736.38;146626;618;45020;-68
2023/10/15 00:40:16;;;;;;;;;10.67;10.33;;;;;17.77;69.82;100712.56;146621;639;46012;-69
2023/10/15 00:43:28;;;;;;;;;12.00;11.00;;;;;17.92;69.44;100727.75;146622;569;46020;-68
2023/10/15 00:46:56;;;;;;;;;10.00;9.00;;;;;17.89;68.81;100719.81;146622;644;46013;-67
2023/10/15 00:49:50;;;;;;;;;9.00;7.67;;;;;17.84;69.20;100724.06;146627;586;46012;-68
2023/10/15 00:53:28;;;;;;;;;8.00;7.00;;;;;17.76;69.09;100717.75;146618;611;46017;-68
2023/10/15 00:56:44;;;;;;;;;6.00;5.67;;;;;17.65;68.98;100711.37;146623;576;46010;-67
2023/10/15 00:59:55;;;;;;;;;8.00;8.00;;;;;17.57;69.11;100711.22;146621;604;46016;-67
2023/10/15 01:02:58;;;;;;;;;11.33;7.67;;;;;17.50;69.72;100704.06;146624;597;46020;-67
2023/10/15 01:06:05;;;;;;;;;8.00;6.33;;;;;17.42;70.51;100701.28;146620;607;46016;-67
2023/10/15 01:09:19;;;;;;;;;8.00;7.00;;;;;17.37;69.81;100694.13;146624;578;46021;-67
2023/10/15 01:12:30;;;;;;;;;9.00;7.67;;;;;17.36;70.58;100692.38;146622;579;46016;-67
2023/10/15 01:15:27;;;;;;;;;7.33;7.33;;;;;17.38;70.67;100702.03;146623;586;46020;-67
2023/10/15 01:18:37;;;;;;;;;;;;;;;;;;;;;
2023/10/15 01:22:02;;;;;;;;;8.67;7.67;;;;;17.39;70.44;100693.34;146623;591;46012;-70
2023/10/15 01:25:26;;;;;;;;;8.33;7.33;;;;;17.30;70.89;100699.25;146624;615;45016;-68
2023/10/15 01:28:20;;;;;;;;;11.33;8.00;;;;;17.19;71.47;100690.22;146621;628;46020;-68
2023/10/15 01:31:17;;;;;;;;;11.00;9.00;;;;;17.10;72.78;100703.09;146620;565;46016;-69
2023/10/15 01:34:24;;;;;;;;;10.33;8.00;;;;;17.00;72.33;100698.50;146627;632;45020;-68
2023/10/15 01:40:44;;;;;;;;;9.00;8.33;;;;;16.88;73.01;100685.97;146621;578;46022;-68
2023/10/15 01:43:56;;;;;;;;;11.67;10.67;;;;;16.73;73.50;100659.38;146624;570;46013;-68
2023/10/15 01:47:10;;;;;;;;;10.00;7.67;;;;;16.82;75.02;100678.88;146620;570;46025;-68
2023/10/15 01:50:24;;;;;;;;;5.67;5.33;;;;;16.81;73.93;100678.81;146624;643;46012;-69
2023/10/15 01:53:23;;;;;;;;;13.00;8.33;;;;;16.81;73.63;100673.59;146622;599;46020;-68
2023/10/15 01:56:36;;;;;;;;;10.00;8.00;;;;;16.82;73.62;100672.72;146622;638;46012;-68
2023/10/15 01:59:55;;;;;;;;;8.67;7.00;;;;;16.14;72.95;100550.62;146623;655;46021;-67
2023/10/15 02:02:53;;;;;;;;;8.00;7.00;;;;;16.89;73.53;100671.19;146619;569;46016;-67
2023/10/15 02:05:45;;;;;;;;;11.67;9.00;;;;;16.92;73.96;100656.41;146627;565;47010;-67
2023/10/15 02:09:06;;;;;;;;;9.67;7.67;;;;;16.95;73.64;100666.09;146620;564;47014;-67
2023/10/15 02:12:23;;;;;;;;;9.00;9.00;;;;;17.00;73.53;100667.06;146620;577;46020;-68
2023/10/15 02:15:38;;;;;;;;;;;;;;;;;;;;;
2023/10/15 02:18:35;;;;;;;;;8.67;8.00;;;;;17.12;73.14;100663.87;146624;614;46020;-67
2023/10/15 02:21:34;;;;;;;;;9.00;8.00;;;;;17.12;73.04;100656.00;146622;587;46013;-68
2023/10/15 02:24:38;;;;;;;;;11.00;10.67;;;;;17.13;72.76;100665.62;146625;566;46010;-67
2023/10/15 02:27:44;;;;;;;;;6.67;6.67;;;;;17.14;72.92;100668.28;146620;602;46015;-68
2023/10/15 02:30:57;;;;;;;;;10.00;9.67;;;;;17.15;72.87;100670.06;146622;667;46021;-66
2023/10/15 02:34:06;;;;;;;;;10.33;8.33;;;;;17.19;73.22;100678.88;146622;644;46016;-67
2023/10/15 02:37:11;;;;;;;;;8.00;7.33;;;;;17.19;72.90;100673.63;146627;593;46010;-67
2023/10/15 02:40:18;;;;;;;;;10.00;8.67;;;;;17.16;72.75;100679.66;146619;575;46014;-68
2023/10/15 02:43:27;;;;;;;;;9.00;7.67;;;;;17.09;73.26;100678.66;146625;599;45021;-69
2023/10/15 02:46:41;;;;;;;;;10.75;9.75;;;;;17.00;74.30;100685.41;146620;662;46014;-70
2023/10/15 02:49:53;;;;;;;;;12.75;10.50;;;;;16.84;75.10;100689.38;146623;692;46020;-69
2023/10/15 02:53:04;;;;;;;;;13.00;10.33;;;;;16.74;75.62;100684.72;146619;599;46017;-70
2023/10/15 02:59:37;;;;;;;;;12.67;10.67;;;;;15.81;75.68;100539.25;146622;622;46012;-69
2023/10/15 03:02:45;;;;;;;;;9.33;9.00;;;;;16.54;77.43;100672.00;146622;598;46020;-69
2023/10/15 03:05:47;;;;;;;;;12.00;10.00;;;;;16.50;76.70;100670.16;146620;605;46016;-68
2023/10/15 03:08:51;;;;;;;;;10.33;10.00;;;;;16.48;76.39;100674.47;146621;565;46021;-69
2023/10/15 03:11:55;;;;;;;;;11.00;11.00;;;;;16.46;76.21;100670.91;146621;714;46016;-69
2023/10/15 03:15:06;;;;;;;;;10.00;8.33;;;;;16.37;76.67;100668.06;146624;598;47010;-70
2023/10/15 03:18:14;;;;;;;;;10.33;9.33;;;;;16.32;76.61;100667.03;146618;611;46016;-69
2023/10/15 03:21:30;;;;;;;;;11.33;9.33;;;;;16.32;76.61;100672.25;146623;594;46020;-70
2023/10/15 03:24:34;;;;;;;;;9.75;8.75;;;;;16.27;76.68;100668.66;146617;576;46016;-69
2023/10/15 03:27:51;;;;;;;;;8.67;8.00;;;;;15.10;77.32;100478.88;146625;588;46010;-69
2023/10/15 03:30:58;;;;;;;;;10.33;8.67;;;;;16.16;77.73;100669.22;146621;652;46012;-69
2023/10/15 03:34:25;;;;;;;;;8.00;8.00;;;;;16.12;77.67;100663.87;146626;647;45020;-69
2023/10/15 03:37:32;;;;;;;;;;;;;;;;;;;;;
2023/10/15 03:40:40;;;;;;;;;9.00;8.00;;;;;16.16;77.36;100664.00;146624;596;46010;-67
2023/10/15 03:43:35;;;;;;;;;10.00;8.00;;;;;16.20;77.47;100664.09;146619;642;46920;-69
2023/10/15 03:46:44;;;;;;;;;;;;;;;;;;;;;
2023/10/15 03:49:43;;;;;;;;;9.00;9.00;;;;;16.29;77.08;100648.62;146621;578;46012;-68
2023/10/15 03:52:39;;;;;;;;;9.33;8.33;;;;;16.28;76.54;100646.87;146625;583;46012;-67
2023/10/15 03:55:49;;;;;;;;;10.33;9.67;;;;;16.28;76.62;100646.87;146619;597;46014;-67
2023/10/15 03:58:52;;;;;;;;;9.67;8.00;;;;;16.34;76.82;100653.16;146621;572;47020;-67
2023/10/15 04:01:49;;;;;;;;;10.33;10.00;;;;;16.40;76.15;100652.44;146621;657;47012;-67
2023/10/15 04:05:11;;;;;;;;;10.00;9.00;;;;;16.42;75.96;100650.75;146622;566;46021;-67
2023/10/15 04:08:18;;;;;;;;;12.67;7.67;;;;;16.40;75.82;100647.19;146620;584;46016;-68
2023/10/15 04:11:29;;;;;;;;;11.33;11.00;;;;;16.34;76.56;100642.69;146624;575;46010;-67
2023/10/15 04:14:28;;;;;;;;;10.33;9.67;;;;;16.29;76.48;100638.16;146620;591;46016;-68
2023/10/15 04:17:33;;;;;;;;;7.33;7.00;;;;;16.22;76.61;100637.13;146624;653;47012;-67
2023/10/15 04:20:44;;;;;;;;;10.00;9.00;;;;;16.17;76.79;100634.41;146621;658;46014;-67
2023/10/15 04:23:52;;;;;;;;;10.00;7.67;;;;;16.11;76.38;100634.22;146625;623;46020;-67
2023/10/15 04:27:28;;;;;;;;;;;;;;;;;;;;;
2023/10/15 04:30:36;;;;;;;;;11.67;10.00;;;;;15.94;77.71;100640.72;146625;575;46020;-69
2023/10/15 04:34:09;;;;;;;;;14.00;11.67;;;;;15.93;77.30;100634.59;146620;569;46012;-67
2023/10/15 04:37:31;;;;;;;;;11.00;10.00;;;;;15.92;77.30;100637.19;146623;632;46010;-67
2023/10/15 04:40:41;;;;;;;;;11.67;9.67;;;;;15.93;77.54;100636.34;146619;618;47016;-67
2023/10/15 04:43:50;;;;;;;;;10.33;9.00;;;;;15.94;77.11;100635.47;146625;593;46010;-67
2023/10/15 04:47:06;;;;;;;;;12.33;9.33;;;;;15.94;78.05;100640.72;146621;635;46016;-69
2023/10/15 04:50:14;;;;;;;;;9.00;9.00;;;;;15.94;77.70;100641.59;146626;573;46012;-68
2023/10/15 04:56:42;;;;;;;;;10.67;10.00;;;;;15.94;77.55;100630.25;146625;578;45021;-67
2023/10/15 04:59:42;;;;;;;;;12.67;11.00;;;;;15.95;77.29;100642.50;146623;620;46012;-68
2023/10/15 05:02:56;;;;;;;;;10.00;8.33;;;;;15.96;78.28;100641.66;146627;605;46010;-67
2023/10/15 05:06:06;;;;;;;;;6.00;6.00;;;;;15.95;77.86;100639.91;146619;572;46016;-67
2023/10/15 05:09:40;;;;;;;;;9.75;8.00;;;;;16.03;77.96;100646.19;146622;576;46012;-67
2023/10/15 05:12:40;;;;;;;;;14.25;11.00;;;;;16.39;79.10;100650.69;146619;566;46017;-68
2023/10/15 05:15:42;;;;;;;;;10.33;8.00;;;;;17.08;77.54;100649.81;146623;654;46010;-69
2023/10/15 05:18:53;;;;;;;;;11.00;10.25;;;;;17.86;74.22;100661.16;146618;590;46017;-69
2023/10/15 05:22:05;;;;;;;;;11.00;8.50;;;;;17.98;72.29;100548.63;146622;649;46012;-68
2023/10/15 05:25:20;;;;;;;;;11.67;10.00;;;;;19.37;71.21;100663.84;146621;577;46012;-69
2023/10/15 05:28:19;;;;;;;;;12.33;10.67;;;;;20.12;68.08;100660.44;146624;565;46010;-70
2023/10/15 05:31:37;;;;;;;;;9.00;9.00;;;;;20.89;65.44;100662.97;146621;612;46014;-68
2023/10/15 05:34:41;;;;;;;;;10.67;9.67;;;;;21.56;63.66;100661.72;146626;648;46010;-68
2023/10/15 05:37:37;;;;;;;;;13.00;10.00;;;;;22.21;63.09;100668.16;146621;664;46012;-68
2023/10/15 05:40:37;;;;;;;;;14.00;13.00;;;;;22.80;58.52;100654.16;146625;610;46010;-68
2023/10/15 05:43:53;;;;;;;;;15.67;13.00;;;;;23.19;57.58;100652.41;146621;584;46016;-68
2023/10/15 05:47:08;;;;;;;;;16.00;13.67;;;;;23.48;55.73;100657.63;146623;570;46010;-67
2023/10/15 05:50:43;;;;;;;;;15.00;14.67;;;;;23.51;56.98;100658.50;146613;582;46918;-68
2023/10/15 05:53:41;;;;;;;;;18.00;17.00;;;;;23.57;56.50;100665.53;146619;645;48010;-68
2023/10/15 05:56:36;;;;;;;;;20.50;17.25;;;;;23.70;56.96;100661.13;146619;650;46012;-67
2023/10/15 05:59:34;;;;;;;;;17.00;15.33;;;;;23.80;55.32;100664.59;146623;716;46027;-67
2023/10/15 06:02:30;;;;;;;;;18.00;16.33;;;;;23.74;55.26;100668.19;146620;635;46016;-68
2023/10/15 06:05:44;;;;;;;;;14.67;12.33;;;;;23.60;54.89;100668.16;146623;637;46020;-68
2023/10/15 06:08:45;;;;;;;;;15.67;13.67;;;;;23.44;56.77;100677.03;146617;586;46014;-67
2023/10/15 06:11:40;;;;;;;;;14.67;13.00;;;;;23.40;56.03;100675.31;146623;708;46010;-69
2023/10/15 06:14:47;;;;;;;;;14.67;12.00;;;;;23.37;55.30;100672.66;146620;611;46016;-67
2023/10/15 06:17:47;;;;;;;;;13.67;12.00;;;;;23.28;54.90;100670.91;146623;570;46010;-69
2023/10/15 06:20:56;;;;;;;;;13.67;13.00;;;;;23.25;56.83;100678.84;146619;576;46017;-68
2023/10/15 06:24:04;;;;;;;;;;;;;;;;;;;;;
2023/10/15 06:27:07;;;;;;;;;16.00;14.33;;;;;23.24;58.26;100680.63;146618;592;46017;-69
2023/10/15 06:30:19;;;;;;;;;18.67;15.33;;;;;23.23;59.43;100691.19;146624;620;46012;-69
2023/10/15 06:33:25;;;;;;;;;12.33;12.33;;;;;22.53;58.28;100576.63;146617;583;46016;-68
2023/10/15 06:36:21;;;;;;;;;13.67;12.00;;;;;23.03;58.05;100670.06;146624;573;46010;-67
2023/10/15 06:39:27;;;;;;;;;13.33;11.00;;;;;23.01;58.89;100683.25;146617;608;46016;-67
2023/10/15 06:42:31;;;;;;;;;13.67;10.67;;;;;23.04;58.47;100682.38;146623;571;46020;-67
2023/10/15 06:45:25;;;;;;;;;15.00;12.00;;;;;23.03;57.86;100683.28;146622;613;45029;-66
2023/10/15 06:48:27;;;;;;;;;13.33;10.67;;;;;23.08;57.12;100680.63;146620;622;46021;-67
2023/10/15 06:51:27;;;;;;;;;14.00;13.67;;;;;23.05;56.18;100685.03;146621;579;46016;-67
2023/10/15 06:54:38;;;;;;;;;13.67;13.33;;;;;22.98;57.66;100693.84;146622;700;46012;-67
2023/10/15 06:57:39;;;;;;;;;12.00;10.00;;;;;22.97;58.02;100700.03;146620;625;46012;-67
2023/10/15 07:00:37;;;;;;;;;10.33;9.33;;;;;23.03;58.83;100684.16;146617;599;46020;-66
2023/10/15 07:03:40;;;;;;;;;11.33;9.33;;;;;23.17;57.52;100688.53;146621;601;47014;-67
2023/10/15 07:06:32;;;;;;;;;12.33;11.67;;;;;23.23;56.72;100681.47;146623;584;46012;-67
2023/10/15 07:09:29;;;;;;;;;15.33;13.67;;;;;23.19;58.13;100678.84;146619;603;45016;-69
2023/10/15 07:12:32;;;;;;;;;13.00;12.00;;;;;23.21;58.53;100682.38;146621;590;46021;-68
2023/10/15 07:16:11;;;;;;;;;;;;;;;;;;;;;
2023/10/15 07:19:10;;;;;;;;;16.33;12.33;;;;;23.31;58.84;100673.56;146621;644;46020;-68
2023/10/15 07:22:04;;;;;;;;;14.67;12.00;;;;;23.36;59.40;100676.16;146620;592;46014;-68
2023/10/15 07:25:00;;;;;;;;;15.33;12.67;;;;;23.43;60.35;100659.41;146620;621;46012;-69
2023/10/15 07:27:57;;;;;;;;;10.67;8.33;;;;;23.58;60.22;100655.81;146619;646;47014;-70
2023/10/15 07:30:55;;;;;;;;;11.67;9.33;;;;;23.73;59.76;100664.63;146621;582;47010;-69
2023/10/15 07:33:55;;;;;;;;;10.33;10.00;;;;;23.90;60.38;100661.06;146620;575;46016;-68
2023/10/15 07:36:56;;;;;;;;;16.67;13.67;;;;;24.06;59.34;100664.50;146625;596;46010;-70
2023/10/15 07:40:18;;;;;;;;;18.33;13.33;;;;;24.16;58.81;100656.50;146617;597;46017;-70
2023/10/15 07:43:28;;;;;;;;;15.00;14.67;;;;;24.27;58.26;100656.44;146624;589;46020;-69
2023/10/15 07:46:38;;;;;;;;;;;;;;;;;;;;;
2023/10/15 07:49:41;;;;;;;;;289.50;228.25;;;;;24.43;57.47;100663.44;146629;618;46011;-69
2023/10/15 07:52:48;;;;;;;;;69.00;54.00;;;;;24.46;57.29;100653.72;146617;569;46016;-69
2023/10/15 07:56:08;;;;;;;;;215.00;170.00;;;;;24.00;58.54;100563.88;146623;597;46020;-70
2023/10/15 07:59:11;;;;;;;;;105.33;93.67;;;;;24.66;57.12;100663.25;146621;564;46016;-69
2023/10/15 08:02:10;;;;;;;;;22.75;20.50;;;;;24.80;56.29;100660.50;146626;621;45020;-68
2023/10/15 08:05:18;;;;;;;;;98.33;77.00;;;;;24.90;57.08;100666.63;146617;566;46920;-68
2023/10/15 08:08:29;;;;;;;;;13.33;13.33;;;;;25.01;57.13;100663.84;146629;563;47020;-72
2023/10/15 08:11:46;;;;;;;;;;;;;;;;;;;;;
2023/10/15 08:15:06;;;;;;;;;13.67;12.33;;;;;25.22;56.57;100660.16;146623;594;46010;-71
2023/10/15 08:18:07;;;;;;;;;11.67;10.33;;;;;25.43;52.76;100665.25;146622;580;46013;-71
2023/10/15 08:21:14;;;;;;;;;19.33;12.00;;;;;25.61;53.66;100665.91;146623;646;46020;-71
2023/10/15 08:24:29;;;;;;;;;15.67;14.00;;;;;25.20;55.25;100571.72;146620;588;46012;-72
2023/10/15 08:27:33;;;;;;;;;14.00;13.67;;;;;25.96;55.00;100662.88;146612;569;46915;-73
2023/10/15 08:30:31;;;;;;;;;13.67;12.67;;;;;26.15;53.89;100660.87;146618;578;46012;-69
2023/10/15 08:33:27;;;;;;;;;13.67;10.67;;;;;26.29;51.61;100653.56;146621;589;46020;-72
2023/10/15 08:36:32;;;;;;;;;10.00;10.00;;;;;26.48;53.31;100651.53;146620;637;46016;-72
2023/10/15 08:39:34;;;;;;;;;13.00;12.00;;;;;26.62;52.58;100648.66;146619;632;46020;-72
2023/10/15 08:42:46;;;;;;;;;13.67;10.67;;;;;26.76;52.49;100644.03;146620;574;46014;-71
2023/10/15 08:45:51;;;;;;;;;14.00;11.67;;;;;26.88;49.28;100646.44;146624;629;46010;-71
2023/10/15 08:49:00;;;;;;;;;;;;;;;;;;;;;
2023/10/15 08:52:08;;;;;;;;;14.33;11.00;;;;;27.16;51.04;100636.22;146622;606;46020;-70
2023/10/15 08:55:12;;;;;;;;;14.00;12.67;;;;;27.29;47.25;100636.91;146616;587;47012;-70
2023/10/15 08:58:22;;;;;;;;;14.00;14.00;;;;;27.35;50.87;100630.53;146621;604;46020;-70
2023/10/15 09:01:28;;;;;;;;;17.33;15.33;;;;;27.39;49.55;100637.59;146622;621;46012;-71
2023/10/15 09:04:53;;;;;;;;;12.33;11.67;;;;;27.37;52.04;100634.94;146622;615;46012;-70
2023/10/15 09:07:47;;;;;;;;;13.33;9.67;;;;;27.42;47.62;100637.53;146620;583;46016;-70
2023/10/15 09:10:46;;;;;;;;;10.00;9.00;;;;;27.47;50.94;100635.62;146623;655;46010;-71
2023/10/15 09:13:59;;;;;;;;;17.33;14.67;;;;;27.51;50.46;100634.69;146622;580;47012;-71
2023/10/15 09:17:01;;;;;;;;;14.00;13.00;;;;;27.59;50.88;100629.19;146624;602;46010;-70
2023/10/15 09:20:36;;;;;;;;;14.33;13.00;;;;;26.79;52.66;100481.69;146621;574;46014;-70
2023/10/15 09:23:43;;;;;;;;;14.00;11.67;;;;;27.66;50.42;100620.16;146621;582;46020;-71
2023/10/15 09:26:54;;;;;;;;;19.67;14.67;;;;;27.73;50.10;100620.94;146620;643;46920;-71
2023/10/15 09:30:19;;;;;;;;;20.00;17.33;;;;;27.14;48.19;100509.41;146619;565;46020;-71
2023/10/15 09:33:43;;;;;;;;;17.67;16.00;;;;;27.68;50.44;100596.16;146622;617;46012;-70
2023/10/15 09:37:03;;;;;;;;;;;;;;;;;;;;;
2023/10/15 09:40:10;;;;;;;;;16.75;14.25;;;;;27.96;48.06;100613.34;146614;625;46917;-70
2023/10/15 09:43:31;;;;;;;;;17.67;16.67;;;;;27.12;50.17;100452.62;146623;622;46010;-71
2023/10/15 09:46:32;;;;;;;;;19.33;16.00;;;;;28.19;48.23;100611.91;146622;619;46015;-71
2023/10/15 09:49:58;;;;;;;;;19.33;17.67;;;;;27.32;49.02;100433.59;146622;669;46021;-70
2023/10/15 09:53:08;;;;;;;;;;;;;;;;;;;;;
2023/10/15 09:56:19;;;;;;;;;18.00;16.67;;;;;28.64;49.81;100598.44;146622;566;47010;-70
2023/10/15 09:59:26;;;;;;;;;19.33;16.00;;;;;27.76;50.37;100450.37;146619;584;46012;-70
2023/10/15 10:02:28;;;;;;;;;16.00;15.00;;;;;28.55;47.75;100587.06;146620;648;46020;-70
2023/10/15 10:05:56;;;;;;;;;18.00;16.67;;;;;28.42;49.61;100580.31;146620;631;46016;-71
2023/10/15 10:09:37;;;;;;;;;18.25;16.25;;;;;27.97;49.40;100486.28;146621;570;46020;-70
2023/10/15 10:13:03;;;;;;;;;17.67;16.00;;;;;27.70;48.29;100415.88;146613;690;46892;-70
2023/10/15 10:16:17;;;;;;;;;15.00;14.67;;;;;28.71;47.35;100562.69;146622;571;46020;-69
2023/10/15 10:19:17;;;;;;;;;17.67;16.67;;;;;28.67;46.77;100555.69;146608;572;47916;-70
2023/10/15 10:22:32;;;;;;;;;18.67;16.67;;;;;28.49;49.63;100549.00;146619;579;46020;-70
2023/10/15 10:26:04;;;;;;;;;14.67;14.67;;;;;27.74;50.03;100417.53;146619;652;46016;-70
2023/10/15 10:28:59;;;;;;;;;19.00;17.00;;;;;28.24;46.34;100532.72;146620;575;46020;-71
2023/10/15 10:32:17;;;;;;;;;18.00;17.33;;;;;27.90;47.90;100533.53;146617;639;47012;-71
2023/10/15 10:35:31;;;;;;;;;16.00;14.67;;;;;27.63;49.99;100525.22;146619;610;47010;-71
2023/10/15 10:38:34;;;;;;;;;17.00;17.00;;;;;27.49;49.75;100529.97;146618;574;46016;-70
2023/10/15 10:41:40;;;;;;;;;21.00;17.33;;;;;27.34;50.80;100519.63;146623;575;46020;-70
2023/10/15 10:44:59;;;;;;;;;16.67;16.33;;;;;26.66;50.21;100421.66;146615;571;46016;-70
2023/10/15 10:47:57;;;;;;;;;17.33;16.67;;;;;27.14;51.95;100506.75;146622;570;46010;-71
2023/10/15 10:51:25;;;;;;;;;15.67;15.00;;;;;26.20;53.41;100348.06;146617;650;46016;-71
2023/10/15 10:54:36;;;;;;;;;15.00;14.00;;;;;27.17;50.55;100496.91;146620;577;46031;-71
2023/10/15 10:57:35;;;;;;;;;19.00;18.00;;;;;27.23;50.17;100492.34;146618;607;46916;-70
2023/10/15 11:00:44;;;;;;;;;18.00;16.67;;;;;27.21;51.71;100503.06;146620;600;46012;-70
2023/10/15 11:03:38;;;;;;;;;17.67;16.67;;;;;27.15;51.04;100490.75;146616;574;48016;-70
2023/10/15 11:06:31;;;;;;;;;19.67;18.00;;;;;27.20;51.17;100489.75;146622;616;46010;-69
2023/10/15 11:09:41;;;;;;;;;18.00;16.00;;;;;26.49;52.97;100360.84;146617;593;46017;-70
2023/10/15 11:12:40;;;;;;;;;19.00;16.67;;;;;27.18;50.74;100484.50;146623;563;46010;-68
2023/10/15 11:15:46;;;;;;;;;19.00;16.00;;;;;27.18;50.89;100488.03;146616;578;47012;-67
2023/10/15 11:18:51;;;;;;;;;19.00;16.67;;;;;27.25;52.05;100490.56;146620;615;46010;-68
2023/10/15 11:21:50;;;;;;;;;17.67;14.33;;;;;27.29;52.59;100493.12;146618;574;47016;-67
2023/10/15 11:25:14;;;;;;;;;16.33;16.33;;;;;26.86;50.65;100397.31;146615;572;47010;-67
2023/10/15 11:28:15;;;;;;;;;15.50;13.50;;;;;27.40;52.71;100490.22;146618;583;46916;-68
2023/10/15 11:31:15;;;;;;;;;16.33;13.67;;;;;27.50;50.50;100482.91;146620;611;46020;-67
2023/10/15 11:34:34;;;;;;;;;20.67;17.67;;;;;26.89;49.86;100371.53;146617;606;46016;-67
2023/10/15 11:37:50;;;;;;;;;18.67;17.00;;;;;26.70;51.27;100376.34;146623;571;46010;-69
2023/10/15 11:40:48;;;;;;;;;15.67;14.67;;;;;27.08;52.68;100462.47;146617;565;46017;-70
2023/10/15 11:43:54;;;;;;;;;14.00;12.67;;;;;27.12;50.93;100461.50;146621;686;46020;-70
2023/10/15 11:47:12;;;;;;;;;16.00;16.00;;;;;27.24;52.33;100460.41;146619;594;46014;-70
2023/10/15 11:50:16;;;;;;;;;16.33;15.67;;;;;27.44;51.08;100465.28;146619;613;47010;-69
2023/10/15 11:53:33;;;;;;;;;13.00;13.00;;;;;27.65;51.16;100450.59;146610;576;47919;-70
2023/10/15 11:56:39;;;;;;;;;18.00;14.67;;;;;27.75;50.46;100453.91;146622;591;46012;-70
2023/10/15 11:59:42;;;;;;;;;14.33;14.00;;;;;27.82;50.92;100458.22;146619;653;46012;-70
2023/10/15 12:02:45;;;;;;;;;15.00;13.00;;;;;27.96;49.76;100458.75;146623;569;46021;-70
2023/10/15 12:06:07;;;;;;;;;17.00;13.00;;;;;27.59;51.04;100362.84;146621;678;46016;-70
2023/10/15 12:09:24;;;;;;;;;13.33;12.67;;;;;27.70;50.05;100368.81;146622;569;46021;-70
2023/10/15 12:12:19;;;;;;;;;16.33;15.00;;;;;28.22;48.18;100451.88;146611;588;46016;-70
2023/10/15 12:15:18;;;;;;;;;14.33;13.67;;;;;28.20;49.59;100448.41;146620;580;46020;-70
2023/10/15 12:18:16;;;;;;;;;18.33;15.00;;;;;28.13;49.29;100447.69;146615;585;46487;-70
2023/10/15 12:21:22;;;;;;;;;14.00;11.67;;;;;27.61;46.53;100387.66;146624;625;45020;-72
2023/10/15 12:24:22;;;;;;;;;16.67;14.67;;;;;27.86;48.03;100460.78;146617;573;46017;-70
2023/10/15 12:27:31;;;;;;;;;;;;;;;;;;;;;
2023/10/15 12:30:32;;;;;;;;;12.67;12.00;;;;;27.62;47.92;100456.00;146619;647;46016;-71
2023/10/15 12:33:34;;;;;;;;;17.33;16.33;;;;;27.55;49.12;100459.72;146621;683;45020;-71
2023/10/15 12:36:42;;;;;;;;;17.00;15.00;;;;;27.52;48.61;100452.66;146617;570;46014;-70
2023/10/15 12:39:44;;;;;;;;;14.00;13.33;;;;;27.48;47.81;100463.44;146615;564;47011;-70
2023/10/15 12:42:40;;;;;;;;;14.33;13.33;;;;;27.35;47.43;100450.41;146620;723;46021;-70
2023/10/15 12:46:07;;;;;;;;;17.00;14.00;;;;;27.21;46.85;100454.28;146620;597;46020;-72
2023/10/15 12:49:27;;;;;;;;;;;;;;;;;;;;;
2023/10/15 12:52:26;;;;;;;;;13.00;13.00;;;;;26.98;47.89;100450.28;146620;581;46020;-70
2023/10/15 12:55:28;;;;;;;;;15.67;13.67;;;;;26.90;49.83;100439.78;146615;581;46016;-70
2023/10/15 12:58:24;;;;;;;;;14.00;11.00;;;;;26.84;48.78;100439.03;146619;565;46020;-70
2023/10/15 13:01:27;;;;;;;;;17.00;15.00;;;;;26.81;48.49;100436.44;146619;608;46013;-71
2023/10/15 13:04:33;;;;;;;;;14.67;13.67;;;;;26.69;49.94;100438.41;146618;593;47010;-70
2023/10/15 13:07:27;;;;;;;;;17.00;14.67;;;;;26.62;49.48;100438.59;146619;570;46015;-70
2023/10/15 13:10:29;;;;;;;;;12.67;11.00;;;;;26.68;48.44;100431.34;146619;597;46020;-71
2023/10/15 13:13:26;;;;;;;;;15.33;13.00;;;;;26.32;49.66;100354.94;146621;593;46012;-70
2023/10/15 13:16:37;;;;;;;;;14.00;12.00;;;;;26.88;48.96;100438.91;146619;597;47020;-71
2023/10/15 13:19:35;;;;;;;;;12.67;12.67;;;;;26.93;46.78;100428.22;146617;569;46016;-71
2023/10/15 13:22:37;;;;;;;;;15.33;12.67;;;;;26.93;48.25;100428.22;146624;686;45030;-70
2023/10/15 13:25:39;;;;;;;;;14.67;13.67;;;;;27.02;48.16;100430.66;146619;623;46016;-71
2023/10/15 13:28:49;;;;;;;;;14.67;13.67;;;;;27.09;47.34;100436.75;146621;641;46010;-70
2023/10/15 13:32:04;;;;;;;;;15.33;12.67;;;;;25.73;49.95;100209.91;146619;625;46016;-70
2023/10/15 13:34:55;;;;;;;;;15.33;12.33;;;;;27.14;48.18;100438.44;146623;595;46012;-70
2023/10/15 13:37:53;;;;;;;;;16.67;13.67;;;;;27.16;48.11;100433.94;146620;578;46016;-71
2023/10/15 13:41:04;;;;;;;;;17.00;15.33;;;;;27.16;47.84;100423.28;146621;576;47010;-70
2023/10/15 13:44:04;;;;;;;;;17.33;16.00;;;;;27.11;48.05;100422.50;146622;594;45016;-71
2023/10/15 13:47:05;;;;;;;;;15.00;14.33;;;;;27.07;46.46;100422.56;146622;622;46010;-71
2023/10/15 13:50:01;;;;;;;;;17.33;14.67;;;;;27.04;47.33;100423.53;146618;581;47012;-71
2023/10/15 13:53:05;;;;;;;;;14.33;12.67;;;;;27.06;47.31;100423.50;146622;581;47010;-71
2023/10/15 13:56:04;;;;;;;;;16.33;13.00;;;;;27.07;48.32;100422.56;146617;577;46016;-71
2023/10/15 13:59:02;;;;;;;;;15.67;14.33;;;;;27.10;47.62;100422.50;146621;570;47010;-71
2023/10/15 14:02:15;;;;;;;;;16.00;12.33;;;;;27.09;48.98;100411.00;146621;640;46012;-71
2023/10/15 14:05:22;;;;;;;;;16.33;14.33;;;;;27.12;49.65;100407.41;146623;613;46020;-72
2023/10/15 14:08:28;;;;;;;;;19.00;14.00;;;;;26.60;49.19;100313.62;146620;625;45017;-70
2023/10/15 14:11:24;;;;;;;;;9.67;9.33;;;;;27.16;47.07;100399.31;146622;598;46010;-71
2023/10/15 14:14:41;;;;;;;;;12.00;11.67;;;;;27.18;48.30;100404.62;146621;628;46014;-70
2023/10/15 14:17:41;;;;;;;;;13.33;12.33;;;;;27.16;47.30;100403.78;146624;569;46012;-70
2023/10/15 14:20:45;;;;;;;;;16.33;14.33;;;;;27.10;45.36;100404.78;146617;573;46016;-70
2023/10/15 14:23:40;;;;;;;;;12.67;11.67;;;;;27.02;46.22;100400.53;146622;571;46010;-71
2023/10/15 14:26:38;;;;;;;;;13.33;12.00;;;;;26.91;45.86;100395.41;146615;616;46016;-70
2023/10/15 14:29:33;;;;;;;;;13.33;12.00;;;;;26.80;45.58;100398.31;146623;676;45021;-71
2023/10/15 14:32:34;;;;;;;;;11.00;10.33;;;;;26.70;47.99;100402.09;146618;587;47012;-71
2023/10/15 14:35:32;;;;;;;;;15.33;13.67;;;;;26.63;48.56;100403.97;146616;618;46021;-71
2023/10/15 14:38:29;;;;;;;;;13.33;13.33;;;;;26.59;49.57;100396.97;146619;563;46012;-70
2023/10/15 14:41:26;;;;;;;;;16.33;13.33;;;;;26.56;50.02;100394.38;146618;598;46020;-72
2023/10/15 14:44:26;;;;;;;;;12.00;11.67;;;;;26.56;50.54;100397.03;146616;572;47012;-70
2023/10/15 14:47:23;;;;;;;;;14.00;12.33;;;;;26.53;50.83;100404.19;146626;657;46010;-69